sensor_id;sensor_type;location;lat;lon;timestamp;pressure;altitude;pressure_sealevel;temperature;humidity
14383;BME280;7275;50.328;8.720;2022-08-25T00:02:16;99867.09;;;26.37;32.92
14383;BME280;7275;50.328;8.720;2022-08-25T00:04:43;99860.44;;;26.32;32.86
14383;BME280;7275;50.328;8.720;2022-08-25T00:07:19;99868.88;;;26.29;32.98
14383;BME280;7275;50.328;8.720;2022-08-25T00:09:46;99865.63;;;26.25;33.19
14383;BME280;7275;50.328;8.720;2022-08-25T00:12:14;99863.94;;;26.24;33.20
14383;BME280;7275;50.328;8.720;2022-08-25T00:14:41;99857.50;;;26.25;33.05
14383;BME280;7275;50.328;8.720;2022-08-25T00:17:10;99860.91;;;26.27;33.30
14383;BME280;7275;50.328;8.720;2022-08-25T00:19:38;99857.34;;;26.27;33.29
14383;BME280;7275;50.328;8.720;2022-08-25T00:22:06;99863.25;;;26.22;33.26
14383;BME280;7275;50.328;8.720;2022-08-25T00:24:34;99858.97;;;26.20;33.48
14383;BME280;7275;50.328;8.720;2022-08-25T00:27:02;99866.69;;;26.14;33.67
14383;BME280;7275;50.328;8.720;2022-08-25T00:29:31;99862.41;;;26.12;33.75
14383;BME280;7275;50.328;8.720;2022-08-25T00:31:59;99857.31;;;26.09;33.67
14383;BME280;7275;50.328;8.720;2022-08-25T00:34:30;99857.47;;;26.07;33.86
14383;BME280;7275;50.328;8.720;2022-08-25T00:36:59;99870.00;;;26.08;34.05
14383;BME280;7275;50.328;8.720;2022-08-25T00:39:27;99866.56;;;26.06;34.14
14383;BME280;7275;50.328;8.720;2022-08-25T00:41:56;99863.16;;;26.04;34.03
14383;BME280;7275;50.328;8.720;2022-08-25T00:44:25;99863.44;;;26.01;33.98
14383;BME280;7275;50.328;8.720;2022-08-25T00:46:54;99864.63;;;25.99;34.33
14383;BME280;7275;50.328;8.720;2022-08-25T00:49:25;99863.22;;;25.95;34.25
14383;BME280;7275;50.328;8.720;2022-08-25T00:51:58;99864.53;;;25.91;34.58
14383;BME280;7275;50.328;8.720;2022-08-25T00:54:29;99861.09;;;25.89;34.55
14383;BME280;7275;50.328;8.720;2022-08-25T00:56:59;99861.41;;;25.86;34.63
14383;BME280;7275;50.328;8.720;2022-08-25T00:59:28;99862.53;;;25.83;34.61
14383;BME280;7275;50.328;8.720;2022-08-25T01:01:56;99860.16;;;25.80;34.89
14383;BME280;7275;50.328;8.720;2022-08-25T01:04:24;99859.44;;;25.78;34.80
14383;BME280;7275;50.328;8.720;2022-08-25T01:06:52;99865.00;;;25.77;34.90
14383;BME280;7275;50.328;8.720;2022-08-25T01:09:22;99858.88;;;25.75;35.32
14383;BME280;7275;50.328;8.720;2022-08-25T01:11:49;99860.72;;;25.74;35.22
14383;BME280;7275;50.328;8.720;2022-08-25T01:14:19;99862.59;;;25.74;35.38
14383;BME280;7275;50.328;8.720;2022-08-25T01:16:47;99857.47;;;25.71;35.30
14383;BME280;7275;50.328;8.720;2022-08-25T01:19:19;99852.22;;;25.69;35.60
14383;BME280;7275;50.328;8.720;2022-08-25T01:21:50;99848.97;;;25.66;35.64
14383;BME280;7275;50.328;8.720;2022-08-25T01:24:23;99856.38;;;25.64;35.75
14383;BME280;7275;50.328;8.720;2022-08-25T01:26:51;99861.78;;;25.64;35.62
14383;BME280;7275;50.328;8.720;2022-08-25T01:29:19;99858.22;;;25.63;35.72
14383;BME280;7275;50.328;8.720;2022-08-25T01:31:47;99859.09;;;25.64;35.81
14383;BME280;7275;50.328;8.720;2022-08-25T01:34:16;99862.63;;;25.64;35.91
14383;BME280;7275;50.328;8.720;2022-08-25T01:36:44;99858.06;;;25.65;35.73
14383;BME280;7275;50.328;8.720;2022-08-25T01:39:13;99860.63;;;25.66;35.97
14383;BME280;7275;50.328;8.720;2022-08-25T01:41:49;99863.66;;;25.63;35.79
14383;BME280;7275;50.328;8.720;2022-08-25T01:44:20;99868.47;;;25.60;36.11
14383;BME280;7275;50.328;8.720;2022-08-25T01:46:47;99868.94;;;25.55;36.04
14383;BME280;7275;50.328;8.720;2022-08-25T01:49:15;99868.38;;;25.52;36.40
14383;BME280;7275;50.328;8.720;2022-08-25T01:51:46;99868.69;;;25.49;36.45
14383;BME280;7275;50.328;8.720;2022-08-25T01:54:15;99863.72;;;25.44;36.38
14383;BME280;7275;50.328;8.720;2022-08-25T01:56:43;99868.41;;;25.42;36.44
14383;BME280;7275;50.328;8.720;2022-08-25T01:59:13;99865.84;;;25.41;36.67
14383;BME280;7275;50.328;8.720;2022-08-25T02:01:49;99858.69;;;25.39;36.69
14383;BME280;7275;50.328;8.720;2022-08-25T02:04:25;99859.72;;;25.38;36.57
14383;BME280;7275;50.328;8.720;2022-08-25T02:06:54;99862.41;;;25.38;36.78
14383;BME280;7275;50.328;8.720;2022-08-25T02:09:23;99861.72;;;25.36;36.76
14383;BME280;7275;50.328;8.720;2022-08-25T02:11:51;99863.56;;;25.36;36.95
14383;BME280;7275;50.328;8.720;2022-08-25T02:14:18;99868.97;;;25.36;36.76
14383;BME280;7275;50.328;8.720;2022-08-25T02:16:47;99868.97;;;25.36;36.80
14383;BME280;7275;50.328;8.720;2022-08-25T02:19:17;99860.16;;;25.34;36.85
14383;BME280;7275;50.328;8.720;2022-08-25T02:21:45;99860.00;;;25.35;37.08
14383;BME280;7275;50.328;8.720;2022-08-25T02:24:13;99857.13;;;25.37;36.88
14383;BME280;7275;50.328;8.720;2022-08-25T02:26:42;99857.00;;;25.38;36.93
14383;BME280;7275;50.328;8.720;2022-08-25T02:29:10;99858.00;;;25.37;37.00
14383;BME280;7275;50.328;8.720;2022-08-25T02:31:38;99860.69;;;25.37;36.84
14383;BME280;7275;50.328;8.720;2022-08-25T02:34:06;99862.53;;;25.37;36.92
14383;BME280;7275;50.328;8.720;2022-08-25T02:36:35;99858.00;;;25.37;37.06
14383;BME280;7275;50.328;8.720;2022-08-25T02:39:04;99854.41;;;25.37;37.07
14383;BME280;7275;50.328;8.720;2022-08-25T02:41:32;99859.72;;;25.38;36.87
14383;BME280;7275;50.328;8.720;2022-08-25T02:44:02;99858.69;;;25.39;37.32
14383;BME280;7275;50.328;8.720;2022-08-25T02:46:31;99860.53;;;25.39;37.06
14383;BME280;7275;50.328;8.720;2022-08-25T02:48:59;99863.97;;;25.41;37.16
14383;BME280;7275;50.328;8.720;2022-08-25T02:51:27;99861.28;;;25.41;37.02
14383;BME280;7275;50.328;8.720;2022-08-25T02:53:55;99860.28;;;25.42;36.93
14383;BME280;7275;50.328;8.720;2022-08-25T02:56:24;99861.28;;;25.41;37.28
14383;BME280;7275;50.328;8.720;2022-08-25T02:58:52;99855.00;;;25.41;37.18
14383;BME280;7275;50.328;8.720;2022-08-25T03:01:21;99857.84;;;25.39;37.20
14383;BME280;7275;50.328;8.720;2022-08-25T03:03:54;99851.72;;;25.37;37.37
14383;BME280;7275;50.328;8.720;2022-08-25T03:06:23;99845.59;;;25.35;37.41
14383;BME280;7275;50.328;8.720;2022-08-25T03:08:51;99847.59;;;25.33;37.18
14383;BME280;7275;50.328;8.720;2022-08-25T03:11:20;99846.88;;;25.31;37.32
14383;BME280;7275;50.328;8.720;2022-08-25T03:13:47;99839.09;;;25.28;37.56
14383;BME280;7275;50.328;8.720;2022-08-25T03:16:17;99835.66;;;25.26;37.62
14383;BME280;7275;50.328;8.720;2022-08-25T03:18:47;99838.66;;;25.23;37.68
14383;BME280;7275;50.328;8.720;2022-08-25T03:21:16;99832.53;;;25.21;37.83
14383;BME280;7275;50.328;8.720;2022-08-25T03:23:44;99833.69;;;25.18;37.90
14383;BME280;7275;50.328;8.720;2022-08-25T03:26:11;99835.84;;;25.15;37.89
14383;BME280;7275;50.328;8.720;2022-08-25T03:28:57;99841.53;;;25.12;37.76
14383;BME280;7275;50.328;8.720;2022-08-25T03:31:25;99837.97;;;25.11;37.90
14383;BME280;7275;50.328;8.720;2022-08-25T03:33:54;99832.84;;;25.08;38.06
14383;BME280;7275;50.328;8.720;2022-08-25T03:36:22;99832.31;;;25.05;38.26
14383;BME280;7275;50.328;8.720;2022-08-25T03:38:50;99832.03;;;24.98;38.00
14383;BME280;7275;50.328;8.720;2022-08-25T03:41:20;99823.47;;;24.93;38.55
14383;BME280;7275;50.328;8.720;2022-08-25T03:43:49;99827.47;;;24.89;38.44
14383;BME280;7275;50.328;8.720;2022-08-25T03:46:17;99830.47;;;24.86;39.01
14383;BME280;7275;50.328;8.720;2022-08-25T03:48:45;99819.06;;;24.83;38.99
14383;BME280;7275;50.328;8.720;2022-08-25T03:51:20;99820.25;;;24.80;38.89
14383;BME280;7275;50.328;8.720;2022-08-25T03:53:48;99818.53;;;24.79;39.14
14383;BME280;7275;50.328;8.720;2022-08-25T03:56:16;99816.81;;;24.78;39.06
14383;BME280;7275;50.328;8.720;2022-08-25T03:58:44;99819.66;;;24.77;38.98
14383;BME280;7275;50.328;8.720;2022-08-25T04:01:13;99824.34;;;24.75;39.16
14383;BME280;7275;50.328;8.720;2022-08-25T04:03:43;99825.47;;;24.72;39.07
14383;BME280;7275;50.328;8.720;2022-08-25T04:06:12;99828.63;;;24.68;39.17
14383;BME280;7275;50.328;8.720;2022-08-25T04:08:41;99829.59;;;24.67;39.30
14383;BME280;7275;50.328;8.720;2022-08-25T04:11:11;99833.44;;;24.64;39.61
14383;BME280;7275;50.328;8.720;2022-08-25T04:13:40;99831.75;;;24.63;39.49
14383;BME280;7275;50.328;8.720;2022-08-25T04:16:09;99828.34;;;24.61;39.94
14383;BME280;7275;50.328;8.720;2022-08-25T04:18:38;99824.06;;;24.58;39.92
14383;BME280;7275;50.328;8.720;2022-08-25T04:21:07;99821.50;;;24.57;39.71
14383;BME280;7275;50.328;8.720;2022-08-25T04:23:35;99817.94;;;24.56;40.33
14383;BME280;7275;50.328;8.720;2022-08-25T04:26:08;99816.22;;;24.55;39.99
14383;BME280;7275;50.328;8.720;2022-08-25T04:28:36;99815.38;;;24.55;40.06
14383;BME280;7275;50.328;8.720;2022-08-25T04:31:05;99819.63;;;24.57;40.00
14383;BME280;7275;50.328;8.720;2022-08-25T04:33:34;99818.81;;;24.57;40.12
14383;BME280;7275;50.328;8.720;2022-08-25T04:36:02;99825.91;;;24.58;40.15
14383;BME280;7275;50.328;8.720;2022-08-25T04:38:38;99818.91;;;24.55;40.36
14383;BME280;7275;50.328;8.720;2022-08-25T04:41:08;99814.53;;;24.54;40.51
14383;BME280;7275;50.328;8.720;2022-08-25T04:43:38;99823.63;;;24.53;40.14
14383;BME280;7275;50.328;8.720;2022-08-25T04:46:07;99818.34;;;24.52;40.41
14383;BME280;7275;50.328;8.720;2022-08-25T04:48:36;99821.06;;;24.52;40.49
14383;BME280;7275;50.328;8.720;2022-08-25T04:51:05;99821.94;;;24.52;40.65
14383;BME280;7275;50.328;8.720;2022-08-25T04:53:34;99815.81;;;24.50;40.79
14383;BME280;7275;50.328;8.720;2022-08-25T04:56:05;99817.50;;;24.51;40.82
14383;BME280;7275;50.328;8.720;2022-08-25T04:58:34;99828.47;;;24.50;40.99
14383;BME280;7275;50.328;8.720;2022-08-25T05:01:02;99826.47;;;24.52;40.85
14383;BME280;7275;50.328;8.720;2022-08-25T05:03:30;99827.19;;;24.54;41.23
14383;BME280;7275;50.328;8.720;2022-08-25T05:05:58;99839.56;;;24.56;41.17
14383;BME280;7275;50.328;8.720;2022-08-25T05:08:26;99842.13;;;24.58;41.25
14383;BME280;7275;50.328;8.720;2022-08-25T05:10:53;99836.28;;;24.63;41.21
14383;BME280;7275;50.328;8.720;2022-08-25T05:13:23;99842.56;;;24.63;41.51
14383;BME280;7275;50.328;8.720;2022-08-25T05:15:55;99836.56;;;24.69;41.35
14383;BME280;7275;50.328;8.720;2022-08-25T05:18:27;99836.91;;;24.76;41.46
14383;BME280;7275;50.328;8.720;2022-08-25T05:20:59;99828.91;;;24.84;41.16
14383;BME280;7275;50.328;8.720;2022-08-25T05:23:28;99826.50;;;24.90;41.01
14383;BME280;7275;50.328;8.720;2022-08-25T05:26:02;99823.03;;;24.98;41.08
14383;BME280;7275;50.328;8.720;2022-08-25T05:28:30;99821.59;;;25.03;40.99
14383;BME280;7275;50.328;8.720;2022-08-25T05:31:00;99819.16;;;25.10;41.06
14383;BME280;7275;50.328;8.720;2022-08-25T05:33:28;99822.31;;;25.15;40.96
14383;BME280;7275;50.328;8.720;2022-08-25T05:35:58;99810.88;;;25.21;40.94
14383;BME280;7275;50.328;8.720;2022-08-25T05:38:26;99812.00;;;25.28;40.78
14383;BME280;7275;50.328;8.720;2022-08-25T05:40:56;99815.97;;;25.33;40.89
14383;BME280;7275;50.328;8.720;2022-08-25T05:43:23;99819.69;;;25.42;40.76
14383;BME280;7275;50.328;8.720;2022-08-25T05:45:52;99819.50;;;25.53;40.89
14383;BME280;7275;50.328;8.720;2022-08-25T05:48:21;99813.88;;;25.64;40.94
14383;BME280;7275;50.328;8.720;2022-08-25T05:50:50;99810.00;;;25.76;40.86
14383;BME280;7275;50.328;8.720;2022-08-25T05:53:18;99813.19;;;25.89;40.58
14383;BME280;7275;50.328;8.720;2022-08-25T05:55:46;99819.38;;;25.99;40.67
14383;BME280;7275;50.328;8.720;2022-08-25T05:58:13;99819.38;;;26.09;40.68
14383;BME280;7275;50.328;8.720;2022-08-25T06:00:42;99813.75;;;26.20;40.41
14383;BME280;7275;50.328;8.720;2022-08-25T06:03:09;99804.50;;;26.31;40.17
14383;BME280;7275;50.328;8.720;2022-08-25T06:05:38;99805.16;;;26.42;40.25
14383;BME280;7275;50.328;8.720;2022-08-25T06:08:06;99810.34;;;26.53;40.04
14383;BME280;7275;50.328;8.720;2022-08-25T06:10:34;99816.19;;;26.66;40.17
14383;BME280;7275;50.328;8.720;2022-08-25T06:13:02;99809.88;;;26.75;40.29
14383;BME280;7275;50.328;8.720;2022-08-25T06:15:31;99811.31;;;26.87;40.17
14383;BME280;7275;50.328;8.720;2022-08-25T06:17:59;99807.22;;;27.01;39.96
14383;BME280;7275;50.328;8.720;2022-08-25T06:20:30;99803.38;;;27.12;40.06
14383;BME280;7275;50.328;8.720;2022-08-25T06:22:59;99808.22;;;27.26;40.00
14383;BME280;7275;50.328;8.720;2022-08-25T06:25:27;99807.81;;;27.38;40.19
14383;BME280;7275;50.328;8.720;2022-08-25T06:27:57;99807.38;;;27.51;39.90
14383;BME280;7275;50.328;8.720;2022-08-25T06:30:25;99815.94;;;27.64;39.91
14383;BME280;7275;50.328;8.720;2022-08-25T06:32:54;99799.50;;;27.74;39.87
14383;BME280;7275;50.328;8.720;2022-08-25T06:35:22;99808.19;;;27.85;39.79
14383;BME280;7275;50.328;8.720;2022-08-25T06:37:49;99808.78;;;27.97;39.71
14383;BME280;7275;50.328;8.720;2022-08-25T06:40:18;99804.91;;;28.07;39.97
14383;BME280;7275;50.328;8.720;2022-08-25T06:42:47;99792.19;;;28.16;39.57
14383;BME280;7275;50.328;8.720;2022-08-25T06:45:15;99797.63;;;28.24;39.62
14383;BME280;7275;50.328;8.720;2022-08-25T06:47:43;99797.31;;;28.35;39.70
14383;BME280;7275;50.328;8.720;2022-08-25T06:50:11;99791.22;;;28.49;39.33
14383;BME280;7275;50.328;8.720;2022-08-25T06:52:38;99797.56;;;28.58;39.51
14383;BME280;7275;50.328;8.720;2022-08-25T06:55:06;99793.47;;;28.70;39.25
14383;BME280;7275;50.328;8.720;2022-08-25T06:57:35;99795.84;;;28.81;39.62
14383;BME280;7275;50.328;8.720;2022-08-25T07:00:04;99798.38;;;28.90;39.58
14383;BME280;7275;50.328;8.720;2022-08-25T07:02:32;99799.06;;;29.00;39.60
14383;BME280;7275;50.328;8.720;2022-08-25T07:05:01;99803.97;;;29.13;39.08
14383;BME280;7275;50.328;8.720;2022-08-25T07:07:30;99799.22;;;29.23;39.31
14383;BME280;7275;50.328;8.720;2022-08-25T07:10:09;99795.28;;;29.34;39.21
14383;BME280;7275;50.328;8.720;2022-08-25T07:12:39;99789.47;;;29.45;39.07
14383;BME280;7275;50.328;8.720;2022-08-25T07:15:07;99791.63;;;29.57;38.68
14383;BME280;7275;50.328;8.720;2022-08-25T07:17:45;99798.56;;;29.68;38.61
14383;BME280;7275;50.328;8.720;2022-08-25T07:20:14;99787.84;;;29.74;38.82
14383;BME280;7275;50.328;8.720;2022-08-25T07:22:44;99788.47;;;29.84;38.79
14383;BME280;7275;50.328;8.720;2022-08-25T07:25:12;99785.53;;;29.94;38.81
14383;BME280;7275;50.328;8.720;2022-08-25T07:27:44;99789.06;;;30.02;38.67
14383;BME280;7275;50.328;8.720;2022-08-25T07:30:12;99789.53;;;30.14;38.54
14383;BME280;7275;50.328;8.720;2022-08-25T07:32:40;99794.72;;;30.24;38.09
14383;BME280;7275;50.328;8.720;2022-08-25T07:35:08;99787.56;;;30.31;38.12
14383;BME280;7275;50.328;8.720;2022-08-25T07:37:47;99786.47;;;30.40;38.42
14383;BME280;7275;50.328;8.720;2022-08-25T07:40:17;99793.22;;;30.52;38.26
14383;BME280;7275;50.328;8.720;2022-08-25T07:42:49;99782.91;;;30.62;37.82
14383;BME280;7275;50.328;8.720;2022-08-25T07:45:17;99778.22;;;30.70;38.08
14383;BME280;7275;50.328;8.720;2022-08-25T07:47:47;99786.34;;;30.78;37.85
14383;BME280;7275;50.328;8.720;2022-08-25T07:50:18;99780.84;;;30.87;37.74
14383;BME280;7275;50.328;8.720;2022-08-25T07:52:46;99785.00;;;30.97;37.95
14383;BME280;7275;50.328;8.720;2022-08-25T07:55:20;99783.31;;;31.11;37.71
14383;BME280;7275;50.328;8.720;2022-08-25T07:57:49;99782.88;;;31.22;37.67
14383;BME280;7275;50.328;8.720;2022-08-25T08:00:21;99775.03;;;31.33;37.46
14383;BME280;7275;50.328;8.720;2022-08-25T08:02:52;99786.59;;;31.43;37.14
14383;BME280;7275;50.328;8.720;2022-08-25T08:05:20;99781.22;;;31.50;37.24
14383;BME280;7275;50.328;8.720;2022-08-25T08:07:49;99780.06;;;31.59;37.26
14383;BME280;7275;50.328;8.720;2022-08-25T08:10:17;99778.53;;;31.71;37.08
14383;BME280;7275;50.328;8.720;2022-08-25T08:13:06;99778.72;;;31.84;37.08
14383;BME280;7275;50.328;8.720;2022-08-25T08:15:36;99786.28;;;31.97;36.66
14383;BME280;7275;50.328;8.720;2022-08-25T08:18:03;99783.44;;;32.05;36.58
14383;BME280;7275;50.328;8.720;2022-08-25T08:20:33;99782.66;;;32.11;36.50
14383;BME280;7275;50.328;8.720;2022-08-25T08:23:08;99781.88;;;32.17;36.31
14383;BME280;7275;50.328;8.720;2022-08-25T08:25:36;99783.66;;;32.24;36.18
14383;BME280;7275;50.328;8.720;2022-08-25T08:28:04;99784.19;;;32.35;35.80
14383;BME280;7275;50.328;8.720;2022-08-25T08:30:34;99770.56;;;32.41;35.68
14383;BME280;7275;50.328;8.720;2022-08-25T08:33:03;99776.97;;;32.48;35.67
14383;BME280;7275;50.328;8.720;2022-08-25T08:35:36;99768.47;;;32.58;35.95
14383;BME280;7275;50.328;8.720;2022-08-25T08:38:04;99756.78;;;32.70;35.86
14383;BME280;7275;50.328;8.720;2022-08-25T08:40:46;99757.97;;;32.89;35.65
14383;BME280;7275;50.328;8.720;2022-08-25T08:43:34;99766.63;;;33.14;35.56
14383;BME280;7275;50.328;8.720;2022-08-25T08:46:06;99772.44;;;33.32;35.22
14383;BME280;7275;50.328;8.720;2022-08-25T08:48:41;99771.06;;;33.49;34.88
14383;BME280;7275;50.328;8.720;2022-08-25T08:51:17;99769.50;;;33.67;34.90
14383;BME280;7275;50.328;8.720;2022-08-25T08:53:53;99764.34;;;33.86;34.60
14383;BME280;7275;50.328;8.720;2022-08-25T08:56:25;99759.56;;;34.07;34.19
14383;BME280;7275;50.328;8.720;2022-08-25T08:58:58;99762.19;;;34.28;33.81
14383;BME280;7275;50.328;8.720;2022-08-25T09:01:34;99754.81;;;34.48;33.77
14383;BME280;7275;50.328;8.720;2022-08-25T09:04:14;99764.38;;;34.66;33.60
14383;BME280;7275;50.328;8.720;2022-08-25T09:06:47;99757.00;;;34.79;33.67
14383;BME280;7275;50.328;8.720;2022-08-25T09:09:19;99756.16;;;34.92;33.47
14383;BME280;7275;50.328;8.720;2022-08-25T09:12:00;99748.13;;;35.03;33.29
14383;BME280;7275;50.328;8.720;2022-08-25T09:14:41;99750.41;;;35.19;32.69
14383;BME280;7275;50.328;8.720;2022-08-25T09:17:35;99746.59;;;35.33;33.13
14383;BME280;7275;50.328;8.720;2022-08-25T09:20:18;99750.81;;;35.49;32.76
14383;BME280;7275;50.328;8.720;2022-08-25T09:23:00;99737.88;;;35.63;32.49
14383;BME280;7275;50.328;8.720;2022-08-25T09:25:35;99738.66;;;35.76;31.69
14383;BME280;7275;50.328;8.720;2022-08-25T09:28:24;99724.44;;;35.86;31.92
14383;BME280;7275;50.328;8.720;2022-08-25T09:30:58;99723.97;;;35.89;31.80
14383;BME280;7275;50.328;8.720;2022-08-25T09:33:30;99728.63;;;35.95;31.77
14383;BME280;7275;50.328;8.720;2022-08-25T09:36:01;99720.75;;;36.05;31.48
14383;BME280;7275;50.328;8.720;2022-08-25T09:38:31;99708.00;;;36.17;31.11
14383;BME280;7275;50.328;8.720;2022-08-25T09:41:00;99716.38;;;36.29;30.89
14383;BME280;7275;50.328;8.720;2022-08-25T09:43:31;99718.47;;;36.33;30.49
14383;BME280;7275;50.328;8.720;2022-08-25T09:46:01;99713.16;;;36.38;30.95
14383;BME280;7275;50.328;8.720;2022-08-25T09:48:32;99709.06;;;36.47;30.60
14383;BME280;7275;50.328;8.720;2022-08-25T09:51:15;99701.75;;;36.59;30.51
14383;BME280;7275;50.328;8.720;2022-08-25T09:53:49;99700.19;;;36.70;29.90
14383;BME280;7275;50.328;8.720;2022-08-25T09:56:19;99698.28;;;36.70;29.80
14383;BME280;7275;50.328;8.720;2022-08-25T09:58:48;99691.91;;;36.70;29.60
14383;BME280;7275;50.328;8.720;2022-08-25T10:01:17;99683.59;;;36.76;29.57
14383;BME280;7275;50.328;8.720;2022-08-25T10:04:00;99676.53;;;36.80;29.17
14383;BME280;7275;50.328;8.720;2022-08-25T10:06:33;99674.59;;;36.88;29.24
14383;BME280;7275;50.328;8.720;2022-08-25T10:09:05;99673.69;;;36.94;29.19
14383;BME280;7275;50.328;8.720;2022-08-25T10:11:37;99671.13;;;36.99;29.33
14383;BME280;7275;50.328;8.720;2022-08-25T10:14:19;99654.88;;;37.09;28.91
14383;BME280;7275;50.328;8.720;2022-08-25T10:16:47;99667.38;;;37.29;28.98
14383;BME280;7275;50.328;8.720;2022-08-25T10:19:25;99658.41;;;37.52;28.97
14383;BME280;7275;50.328;8.720;2022-08-25T10:22:05;99648.41;;;37.69;28.50
14383;BME280;7275;50.328;8.720;2022-08-25T10:24:37;99644.47;;;37.77;28.13
14383;BME280;7275;50.328;8.720;2022-08-25T10:27:17;99642.03;;;37.87;28.17
14383;BME280;7275;50.328;8.720;2022-08-25T10:30:09;99642.59;;;38.07;28.18
14383;BME280;7275;50.328;8.720;2022-08-25T10:33:05;99632.09;;;38.27;28.21
14383;BME280;7275;50.328;8.720;2022-08-25T10:35:54;99631.63;;;38.42;27.77
14383;BME280;7275;50.328;8.720;2022-08-25T10:38:35;99626.72;;;38.55;27.54
14383;BME280;7275;50.328;8.720;2022-08-25T10:44:05;99625.31;;;38.87;27.32
14383;BME280;7275;50.328;8.720;2022-08-25T10:47:10;99607.81;;;39.10;27.09
14383;BME280;7275;50.328;8.720;2022-08-25T10:49:45;99604.69;;;39.30;26.69
14383;BME280;7275;50.328;8.720;2022-08-25T10:52:20;99605.69;;;39.52;26.95
14383;BME280;7275;50.328;8.720;2022-08-25T10:54:56;99599.09;;;39.81;26.16
14383;BME280;7275;50.328;8.720;2022-08-25T10:57:31;99601.00;;;40.09;25.50
14383;BME280;7275;50.328;8.720;2022-08-25T11:00:05;99599.69;;;40.28;25.15
14383;BME280;7275;50.328;8.720;2022-08-25T11:05:33;99596.50;;;40.36;25.25
14383;BME280;7275;50.328;8.720;2022-08-25T11:08:10;99593.97;;;40.34;24.86
14383;BME280;7275;50.328;8.720;2022-08-25T11:10:45;99588.34;;;40.29;24.81
14383;BME280;7275;50.328;8.720;2022-08-25T11:13:21;99584.22;;;40.32;24.81
14383;BME280;7275;50.328;8.720;2022-08-25T11:15:54;99587.25;;;40.30;24.35
14383;BME280;7275;50.328;8.720;2022-08-25T11:18:47;99587.75;;;40.27;24.13
14383;BME280;7275;50.328;8.720;2022-08-25T11:21:19;99585.31;;;40.31;24.10
14383;BME280;7275;50.328;8.720;2022-08-25T11:23:55;99591.44;;;40.16;24.48
14383;BME280;7275;50.328;8.720;2022-08-25T11:26:27;99589.63;;;39.93;24.12
14383;BME280;7275;50.328;8.720;2022-08-25T11:29:05;99590.16;;;39.62;24.04
14383;BME280;7275;50.328;8.720;2022-08-25T11:31:39;99588.69;;;39.32;24.42
14383;BME280;7275;50.328;8.720;2022-08-25T11:34:10;99588.84;;;39.02;24.26
14383;BME280;7275;50.328;8.720;2022-08-25T11:36:42;99584.81;;;38.70;24.43
14383;BME280;7275;50.328;8.720;2022-08-25T11:39:15;99583.44;;;38.49;24.70
14383;BME280;7275;50.328;8.720;2022-08-25T11:41:56;99583.09;;;38.34;24.91
14383;BME280;7275;50.328;8.720;2022-08-25T11:44:42;99577.16;;;38.19;24.86
14383;BME280;7275;50.328;8.720;2022-08-25T11:47:45;99576.66;;;38.10;25.31
14383;BME280;7275;50.328;8.720;2022-08-25T11:50:26;99580.72;;;38.08;25.03
14383;BME280;7275;50.328;8.720;2022-08-25T11:52:59;99573.75;;;38.05;24.94
14383;BME280;7275;50.328;8.720;2022-08-25T11:55:45;99578.81;;;38.20;25.08
14383;BME280;7275;50.328;8.720;2022-08-25T11:58:23;99578.38;;;38.34;25.04
14383;BME280;7275;50.328;8.720;2022-08-25T12:00:57;99572.25;;;38.32;24.91
14383;BME280;7275;50.328;8.720;2022-08-25T12:03:51;99566.34;;;38.17;25.17
14383;BME280;7275;50.328;8.720;2022-08-25T12:06:26;99569.94;;;38.06;25.05
14383;BME280;7275;50.328;8.720;2022-08-25T12:09:17;99572.69;;;37.95;25.26
14383;BME280;7275;50.328;8.720;2022-08-25T12:11:53;99562.56;;;37.89;25.47
14383;BME280;7275;50.328;8.720;2022-08-25T12:14:43;99557.53;;;37.97;25.43
14383;BME280;7275;50.328;8.720;2022-08-25T12:17:22;99554.22;;;38.18;25.36
14383;BME280;7275;50.328;8.720;2022-08-25T12:19:54;99561.94;;;38.39;25.30
14383;BME280;7275;50.328;8.720;2022-08-25T12:22:40;99565.06;;;38.55;25.22
14383;BME280;7275;50.328;8.720;2022-08-25T12:25:26;99559.03;;;38.58;24.98
14383;BME280;7275;50.328;8.720;2022-08-25T12:28:04;99562.31;;;38.55;25.01
14383;BME280;7275;50.328;8.720;2022-08-25T12:30:42;99558.56;;;38.49;24.92
14383;BME280;7275;50.328;8.720;2022-08-25T12:33:23;99559.06;;;38.46;24.64
14383;BME280;7275;50.328;8.720;2022-08-25T12:35:58;99560.97;;;38.46;24.62
14383;BME280;7275;50.328;8.720;2022-08-25T12:38:29;99557.25;;;38.40;24.55
14383;BME280;7275;50.328;8.720;2022-08-25T12:41:02;99560.41;;;38.32;24.43
14383;BME280;7275;50.328;8.720;2022-08-25T12:43:36;99553.66;;;38.28;24.54
14383;BME280;7275;50.328;8.720;2022-08-25T12:46:33;99545.22;;;38.23;24.73
14383;BME280;7275;50.328;8.720;2022-08-25T12:49:03;99540.78;;;38.22;24.88
14383;BME280;7275;50.328;8.720;2022-08-25T12:51:47;99548.22;;;38.21;24.65
14383;BME280;7275;50.328;8.720;2022-08-25T12:54:21;99538.03;;;38.22;24.32
14383;BME280;7275;50.328;8.720;2022-08-25T12:56:54;99542.81;;;38.26;24.35
14383;BME280;7275;50.328;8.720;2022-08-25T12:59:32;99546.19;;;38.28;24.21
14383;BME280;7275;50.328;8.720;2022-08-25T13:02:35;99541.59;;;38.22;24.56
14383;BME280;7275;50.328;8.720;2022-08-25T13:08:34;99540.50;;;38.12;24.28
14383;BME280;7275;50.328;8.720;2022-08-25T13:11:15;99532.47;;;37.99;24.45
14383;BME280;7275;50.328;8.720;2022-08-25T13:13:50;99536.88;;;37.88;24.61
14383;BME280;7275;50.328;8.720;2022-08-25T13:16:23;99528.09;;;37.80;24.85
14383;BME280;7275;50.328;8.720;2022-08-25T13:18:55;99532.84;;;37.73;24.57
14383;BME280;7275;50.328;8.720;2022-08-25T13:21:30;99531.78;;;37.74;24.32
14383;BME280;7275;50.328;8.720;2022-08-25T13:24:03;99529.03;;;37.74;24.58
14383;BME280;7275;50.328;8.720;2022-08-25T13:26:37;99529.47;;;37.71;24.29
14383;BME280;7275;50.328;8.720;2022-08-25T13:29:18;99523.84;;;37.66;24.26
14383;BME280;7275;50.328;8.720;2022-08-25T13:31:53;99519.63;;;37.63;24.37
14383;BME280;7275;50.328;8.720;2022-08-25T13:34:25;99506.91;;;37.62;23.99
14383;BME280;7275;50.328;8.720;2022-08-25T13:37:04;99513.16;;;37.69;24.47
14383;BME280;7275;50.328;8.720;2022-08-25T13:39:50;99514.00;;;37.70;24.30
14383;BME280;7275;50.328;8.720;2022-08-25T13:42:37;99499.88;;;37.78;24.13
14383;BME280;7275;50.328;8.720;2022-08-25T13:45:12;99496.28;;;37.89;24.26
14383;BME280;7275;50.328;8.720;2022-08-25T13:47:43;99496.31;;;38.00;24.03